createdAt,value
2022-10-18T00:01:17.332Z,59.80
2022-10-18T00:04:39.289Z,64.72
2022-10-18T00:08:01.353Z,60.55
2022-10-18T00:11:23.362Z,64.32
2022-10-18T00:14:48.096Z,63.90
2022-10-18T00:18:10.064Z,63.80
2022-10-18T00:21:32.104Z,57.65
2022-10-18T00:24:54.131Z,60.75
2022-10-18T00:28:16.119Z,65.35
2022-10-18T00:31:39.188Z,57.13
2022-10-18T00:35:05.677Z,59.80
2022-10-18T00:38:28.243Z,59.55
2022-10-18T00:41:55.625Z,62.10
2022-10-18T00:45:23.499Z,62.97
2022-10-18T00:48:46.109Z,64.65
2022-10-18T00:52:42.549Z,56.10
2022-10-18T00:56:04.822Z,62.15
2022-10-18T00:59:28.214Z,54.95
2022-10-18T01:02:50.888Z,55.38
2022-10-18T01:06:13.220Z,65.57
2022-10-18T01:09:47.034Z,54.72
2022-10-18T01:13:14.711Z,56.75
2022-10-18T01:16:59.649Z,56.08
2022-10-18T01:20:52.286Z,59.53
2022-10-18T01:24:34.453Z,63.95
2022-10-18T01:28:08.036Z,54.17
2022-10-18T01:31:44.332Z,59.92
2022-10-18T01:35:11.730Z,59.45
2022-10-18T01:38:36.729Z,69.95
2022-10-18T01:42:01.549Z,63.33
2022-10-18T01:45:25.333Z,66.05
2022-10-18T01:48:48.308Z,65.72
2022-10-18T01:52:14.467Z,64.38
2022-10-18T01:55:45.787Z,61.97
2022-10-18T01:59:25.859Z,66.00
2022-10-18T02:02:54.430Z,54.90
2022-10-18T02:06:27.202Z,57.13
2022-10-18T02:10:08.454Z,64.95
2022-10-18T02:13:47.269Z,61.83
2022-10-18T02:17:12.281Z,57.08
2022-10-18T02:20:36.611Z,60.05
2022-10-18T02:24:00.395Z,53.30
2022-10-18T02:27:22.964Z,51.53
2022-10-18T02:31:06.769Z,57.40
2022-10-18T02:34:45.463Z,56.05
2022-10-18T02:38:09.694Z,48.65
2022-10-18T02:41:32.508Z,56.00
2022-10-18T02:44:54.483Z,51.08
2022-10-18T02:48:16.462Z,53.60
2022-10-18T02:51:38.641Z,47.72
2022-10-18T02:55:01.455Z,48.78
2022-10-18T02:58:23.584Z,57.28
2022-10-18T03:01:45.685Z,57.38
2022-10-18T03:05:07.959Z,47.97
2022-10-18T03:08:30.100Z,52.25
2022-10-18T03:11:52.210Z,48.85
2022-10-18T03:15:14.186Z,55.38
2022-10-18T03:18:36.213Z,54.50
2022-10-18T03:21:58.262Z,56.70
2022-10-18T03:25:20.269Z,54.67
2022-10-18T03:28:42.742Z,60.65
2022-10-18T03:32:05.048Z,56.17
2022-10-18T03:35:27.018Z,60.63
2022-10-18T03:38:48.957Z,57.60
2022-10-18T03:42:10.928Z,55.60
2022-10-18T03:45:32.873Z,60.70
2022-10-18T03:48:54.828Z,53.03
2022-10-18T03:52:16.917Z,57.80
2022-10-18T03:55:39.016Z,56.47
2022-10-18T03:59:01.108Z,59.60
2022-10-18T04:02:23.100Z,61.67
2022-10-18T04:05:46.554Z,50.75
2022-10-18T04:09:10.213Z,60.58
2022-10-18T04:12:33.145Z,52.67
2022-10-18T04:15:55.363Z,52.30
2022-10-18T04:19:17.752Z,56.25
2022-10-18T04:22:55.087Z,49.75
2022-10-18T04:26:18.174Z,55.30
2022-10-18T04:29:40.199Z,55.78
2022-10-18T04:33:02.164Z,51.95
2022-10-18T04:36:24.360Z,53.22
2022-10-18T04:39:51.242Z,53.08
2022-10-18T04:43:15.910Z,59.05
2022-10-18T04:46:37.880Z,50.92
2022-10-18T04:49:59.879Z,57.28
2022-10-18T04:53:22.391Z,51.45
2022-10-18T04:56:44.450Z,56.28
2022-10-18T05:00:06.926Z,49.78
2022-10-18T05:07:42.205Z,57.70
2022-10-18T05:11:05.895Z,55.70
2022-10-18T05:14:28.720Z,47.97
2022-10-18T05:17:51.878Z,57.25
2022-10-18T05:21:18.154Z,50.35
2022-10-18T05:24:41.741Z,58.95
2022-10-18T05:28:15.653Z,55.38
2022-10-18T05:31:45.880Z,49.95
2022-10-18T05:35:08.943Z,55.40
2022-10-18T05:41:59.937Z,51.95
2022-10-18T05:45:22.089Z,55.13
2022-10-18T05:48:49.691Z,54.95
2022-10-18T05:52:19.429Z,54.60
2022-10-18T05:55:41.860Z,56.70
2022-10-18T05:59:15.963Z,55.75
2022-10-18T06:02:38.573Z,57.75
2022-10-18T06:06:09.218Z,67.07
2022-10-18T06:09:33.294Z,64.45
2022-10-18T06:12:55.309Z,55.70
2022-10-18T06:16:19.639Z,63.80
2022-10-18T06:19:45.169Z,73.57
2022-10-18T06:23:07.840Z,102.00
2022-10-18T06:26:29.954Z,113.60
2022-10-18T06:29:52.196Z,190.43
2022-10-18T06:33:14.900Z,155.00
2022-10-18T06:36:38.645Z,159.45
2022-10-18T06:40:01.317Z,92.68
2022-10-18T06:43:25.825Z,72.13
2022-10-18T06:46:51.776Z,56.45
2022-10-18T06:50:20.757Z,62.25
2022-10-18T06:54:17.252Z,59.20
2022-10-18T06:57:42.911Z,50.25
2022-10-18T07:01:31.057Z,46.35
2022-10-18T07:04:55.264Z,41.08
2022-10-18T07:08:29.627Z,32.92
2022-10-18T07:12:03.019Z,31.20
2022-10-18T07:16:00.988Z,30.55
2022-10-18T07:19:27.600Z,30.00
2022-10-18T07:26:49.116Z,27.38
2022-10-18T07:30:12.712Z,31.13
2022-10-18T07:33:38.813Z,29.95
2022-10-18T07:37:06.418Z,26.88
2022-10-18T07:40:40.482Z,25.27
2022-10-18T07:44:40.847Z,27.88
2022-10-18T07:48:08.054Z,31.15
2022-10-18T07:51:43.533Z,27.73
2022-10-18T07:55:15.422Z,26.75
2022-10-18T07:59:00.764Z,25.98
2022-10-18T08:02:36.219Z,24.80
2022-10-18T08:06:01.105Z,20.98
2022-10-18T08:09:30.739Z,20.20
2022-10-18T08:12:57.236Z,22.35
2022-10-18T08:16:40.541Z,18.52
2022-10-18T08:20:57.272Z,20.00
2022-10-18T08:24:27.612Z,18.65
2022-10-18T08:27:55.588Z,23.88
2022-10-18T08:31:35.837Z,22.13
2022-10-18T08:35:00.769Z,21.48
2022-10-18T08:38:50.057Z,20.38
2022-10-18T08:42:20.064Z,20.15
2022-10-18T08:45:45.013Z,21.00
2022-10-18T08:49:47.081Z,16.27
2022-10-18T08:53:27.683Z,18.43
2022-10-18T08:56:59.862Z,14.48
2022-10-18T09:00:29.042Z,13.60
2022-10-18T09:03:53.642Z,12.30
2022-10-18T09:07:18.380Z,12.75
2022-10-18T09:14:32.619Z,10.68
2022-10-18T09:18:09.872Z,13.27
2022-10-18T09:21:51.677Z,13.63
2022-10-18T09:25:24.549Z,15.15
2022-10-18T09:28:52.512Z,15.82
2022-10-18T09:32:38.498Z,15.18
2022-10-18T09:36:06.582Z,17.17
2022-10-18T09:39:38.212Z,14.45
2022-10-18T09:43:03.052Z,13.73
2022-10-18T09:46:30.330Z,14.20
2022-10-18T09:50:02.231Z,13.05
2022-10-18T09:53:53.037Z,12.38
2022-10-18T09:57:41.701Z,15.77
2022-10-18T10:01:03.813Z,15.45
2022-10-18T10:04:25.963Z,17.02
2022-10-18T10:07:57.040Z,12.00
2022-10-18T10:11:37.056Z,16.75
2022-10-18T10:15:28.250Z,14.75
2022-10-18T10:18:54.753Z,25.27
2022-10-18T10:22:25.708Z,25.83
2022-10-18T10:25:58.550Z,23.63
2022-10-18T10:29:48.317Z,17.45
2022-10-18T10:33:37.464Z,12.63
2022-10-18T10:36:59.604Z,11.55
2022-10-18T10:40:28.375Z,10.05
2022-10-18T10:43:51.363Z,14.47
2022-10-18T10:47:32.818Z,10.27
2022-10-18T10:51:16.758Z,9.95
2022-10-18T10:54:40.222Z,12.98
2022-10-18T10:58:02.685Z,13.52
2022-10-18T11:01:31.185Z,13.23
2022-10-18T11:04:55.454Z,14.02
2022-10-18T11:08:23.923Z,19.02
2022-10-18T11:11:59.657Z,15.23
2022-10-18T11:15:28.753Z,19.23
2022-10-18T11:18:52.787Z,16.65
2022-10-18T11:22:19.686Z,21.23
2022-10-18T11:30:26.920Z,22.40
2022-10-18T11:34:09.558Z,19.50
2022-10-18T11:37:51.589Z,19.67
2022-10-18T11:41:55.202Z,27.13
2022-10-18T11:45:43.957Z,24.00
2022-10-18T11:49:29.087Z,24.05
2022-10-18T11:53:10.815Z,24.98
2022-10-18T11:56:42.224Z,27.00
2022-10-18T12:00:23.296Z,32.35
2022-10-18T12:04:02.802Z,37.50
2022-10-18T12:07:32.356Z,34.88
2022-10-18T12:11:05.030Z,41.53
2022-10-18T12:14:33.048Z,41.70
2022-10-18T12:17:58.319Z,40.83
2022-10-18T12:21:26.354Z,36.58
2022-10-18T12:24:48.888Z,39.70
2022-10-18T12:28:49.099Z,44.00
2022-10-18T12:32:14.828Z,46.35
2022-10-18T12:35:55.701Z,44.63
2022-10-18T12:40:13.146Z,44.17
2022-10-18T12:43:37.785Z,44.15
2022-10-18T12:47:02.674Z,37.45
2022-10-18T12:50:39.878Z,37.83
2022-10-18T12:54:01.991Z,45.40
2022-10-18T12:57:24.272Z,38.33
2022-10-18T13:00:49.294Z,36.33
2022-10-18T13:04:32.536Z,38.05
2022-10-18T13:08:23.240Z,41.35
2022-10-18T13:11:45.363Z,39.95
2022-10-18T13:15:33.449Z,43.67
2022-10-18T13:19:25.157Z,43.13
2022-10-18T13:23:02.312Z,43.35
2022-10-18T13:26:32.068Z,45.22
2022-10-18T13:30:02.679Z,48.13
2022-10-18T13:33:42.025Z,50.33
2022-10-18T13:37:18.787Z,43.60
2022-10-18T13:40:40.902Z,47.25
2022-10-18T13:44:11.622Z,48.08
2022-10-18T13:47:38.336Z,46.65
2022-10-18T13:51:24.098Z,43.47
2022-10-18T13:55:14.377Z,44.72
2022-10-18T13:59:05.744Z,42.45
2022-10-18T14:03:21.946Z,43.83
2022-10-18T14:06:52.511Z,46.20
2022-10-18T14:10:29.791Z,44.05
2022-10-18T14:14:23.777Z,41.83
2022-10-18T14:17:49.306Z,40.97
2022-10-18T14:21:21.860Z,45.97
2022-10-18T14:24:48.571Z,40.30
2022-10-18T14:28:18.488Z,44.13
2022-10-18T14:31:43.476Z,39.45
2022-10-18T14:35:33.454Z,41.72
2022-10-18T14:39:04.874Z,40.08
2022-10-18T14:42:28.275Z,35.10
2022-10-18T14:45:50.398Z,35.08
2022-10-18T14:49:13.734Z,36.53
2022-10-18T14:52:35.999Z,39.38
2022-10-18T14:56:05.009Z,36.25
2022-10-18T14:59:32.981Z,33.50
2022-10-18T15:02:54.969Z,37.33
2022-10-18T15:06:20.512Z,36.55
2022-10-18T15:09:43.476Z,36.72
2022-10-18T15:13:10.245Z,35.85
2022-10-18T15:16:33.802Z,33.13
2022-10-18T15:20:19.049Z,33.33
2022-10-18T15:23:41.075Z,34.10
2022-10-18T15:27:24.168Z,30.98
2022-10-18T15:30:46.273Z,39.03
2022-10-18T15:34:21.920Z,40.38
2022-10-18T15:37:46.915Z,32.80
2022-10-18T15:41:40.258Z,28.40
2022-10-18T15:45:02.324Z,31.73
2022-10-18T15:48:39.814Z,29.35
2022-10-18T15:52:37.428Z,30.35
2022-10-18T15:56:27.965Z,37.88
2022-10-18T15:59:53.434Z,29.75
2022-10-18T16:03:16.994Z,35.83
2022-10-18T16:06:39.030Z,32.72
2022-10-18T16:10:01.062Z,28.70
2022-10-18T16:13:23.046Z,31.20
2022-10-18T16:16:45.864Z,37.05
2022-10-18T16:20:21.386Z,29.63
2022-10-18T16:23:43.464Z,27.67
2022-10-18T16:27:05.949Z,26.52
2022-10-18T16:30:30.781Z,31.77
2022-10-18T16:33:53.968Z,32.35
2022-10-18T16:37:15.988Z,28.13
2022-10-18T16:40:41.135Z,28.73
2022-10-18T16:44:03.633Z,31.95
2022-10-18T16:47:25.665Z,36.60
2022-10-18T16:50:48.260Z,37.53
2022-10-18T16:54:10.425Z,37.08
2022-10-18T16:57:41.078Z,34.33
2022-10-18T17:01:06.717Z,36.30
2022-10-18T17:04:31.498Z,36.35
2022-10-18T17:07:54.276Z,39.25
2022-10-18T17:11:18.317Z,41.15
2022-10-18T17:14:45.030Z,36.25
2022-10-18T17:18:11.798Z,44.58
2022-10-18T17:21:34.884Z,38.10
2022-10-18T17:25:01.156Z,38.90
2022-10-18T17:28:24.546Z,41.92
2022-10-18T17:31:47.453Z,41.42
2022-10-18T17:35:09.771Z,50.60
2022-10-18T17:38:32.116Z,47.88
2022-10-18T17:41:55.948Z,49.65
2022-10-18T17:45:23.013Z,54.88
2022-10-18T17:48:49.639Z,50.40
2022-10-18T17:52:12.024Z,53.13
2022-10-18T17:55:35.073Z,57.28
2022-10-18T17:58:57.198Z,57.55
2022-10-18T18:02:19.168Z,51.92
2022-10-18T18:05:41.532Z,58.75
2022-10-18T18:09:07.497Z,51.83
2022-10-18T18:12:29.589Z,54.58
2022-10-18T18:15:51.598Z,59.72
2022-10-18T18:19:14.596Z,60.25
2022-10-18T18:22:40.457Z,59.60
2022-10-18T18:26:04.663Z,57.50
2022-10-18T18:29:27.852Z,64.38
2022-10-18T18:32:49.894Z,60.80
2022-10-18T18:36:12.948Z,57.05
2022-10-18T18:39:35.995Z,56.58
2022-10-18T18:43:07.194Z,58.55
2022-10-18T18:46:41.694Z,63.67
2022-10-18T18:50:03.906Z,65.20
2022-10-18T18:53:28.688Z,61.35
2022-10-18T18:56:52.088Z,65.28
2022-10-18T19:00:15.049Z,61.55
2022-10-18T19:03:38.718Z,59.85
2022-10-18T19:07:04.007Z,64.32
2022-10-18T19:10:26.237Z,66.03
2022-10-18T19:13:50.586Z,65.50
2022-10-18T19:17:12.670Z,66.63
2022-10-18T19:20:34.903Z,65.13
2022-10-18T19:23:59.222Z,60.10
2022-10-18T19:27:21.346Z,63.33
2022-10-18T19:30:47.879Z,63.33
2022-10-18T19:34:13.696Z,61.53
2022-10-18T19:37:35.937Z,63.03
2022-10-18T19:40:58.072Z,61.95
2022-10-18T19:44:20.526Z,61.10
2022-10-18T19:47:42.780Z,68.38
2022-10-18T19:51:07.983Z,70.75
2022-10-18T19:54:31.653Z,61.30
2022-10-18T19:57:53.644Z,66.05
2022-10-18T20:01:16.611Z,63.65
2022-10-18T20:04:38.562Z,76.35
2022-10-18T20:08:00.558Z,60.88
2022-10-18T20:11:25.152Z,64.03
2022-10-18T20:14:49.675Z,62.58
2022-10-18T20:18:11.679Z,67.93
2022-10-18T20:21:35.998Z,71.20
2022-10-18T20:25:00.586Z,67.43
2022-10-18T20:28:23.062Z,71.50
2022-10-18T20:31:56.249Z,69.47
2022-10-18T20:35:26.257Z,63.38
2022-10-18T20:38:55.531Z,75.25
2022-10-18T20:42:20.777Z,71.18
2022-10-18T20:45:42.857Z,71.32
2022-10-18T20:49:06.791Z,65.28
2022-10-18T20:52:28.869Z,77.07
2022-10-18T20:55:51.007Z,76.55
2022-10-18T20:59:13.809Z,75.88
2022-10-18T21:02:35.909Z,63.75
2022-10-18T21:06:02.287Z,57.63
2022-10-18T21:09:24.341Z,66.25
2022-10-18T21:12:47.972Z,60.50
2022-10-18T21:16:10.092Z,63.67
2022-10-18T21:19:32.137Z,63.60
2022-10-18T21:22:59.901Z,57.20
2022-10-18T21:26:26.789Z,61.65
2022-10-18T21:29:49.350Z,60.28
2022-10-18T21:33:11.283Z,59.50
2022-10-18T21:36:36.158Z,58.05
2022-10-18T21:39:58.135Z,62.22
2022-10-18T21:43:20.115Z,60.03
2022-10-18T21:46:46.839Z,63.08
2022-10-18T21:50:09.327Z,67.32
2022-10-18T21:53:31.621Z,61.72
2022-10-18T21:56:53.546Z,64.03
2022-10-18T22:00:16.206Z,70.95
2022-10-18T22:03:38.472Z,61.72
2022-10-18T22:07:00.533Z,70.15
2022-10-18T22:10:22.504Z,70.47
2022-10-18T22:13:44.759Z,74.43
2022-10-18T22:17:06.784Z,69.65
2022-10-18T22:20:28.787Z,71.20
2022-10-18T22:23:52.957Z,69.93
2022-10-18T22:27:14.944Z,66.32
2022-10-18T22:30:38.093Z,71.70
2022-10-18T22:34:03.245Z,69.97
2022-10-18T22:37:25.205Z,69.35
2022-10-18T22:40:47.228Z,71.18
2022-10-18T22:44:12.131Z,80.45
2022-10-18T22:47:34.459Z,75.95
2022-10-18T22:50:56.721Z,78.60
2022-10-18T22:54:18.949Z,83.43
2022-10-18T22:57:40.907Z,84.15
2022-10-18T23:01:05.321Z,81.45
2022-10-18T23:04:27.363Z,80.72
2022-10-18T23:07:52.687Z,83.22
2022-10-18T23:11:14.970Z,76.82
2022-10-18T23:14:36.950Z,76.85
2022-10-18T23:18:02.952Z,74.38
2022-10-18T23:21:35.343Z,71.15
2022-10-18T23:24:57.581Z,87.68
2022-10-18T23:28:20.409Z,81.97
2022-10-18T23:31:42.357Z,95.25
2022-10-18T23:35:05.773Z,82.65
2022-10-18T23:38:29.646Z,85.57
2022-10-18T23:41:51.569Z,79.03
2022-10-18T23:45:13.486Z,87.60
2022-10-18T23:48:35.927Z,83.70
2022-10-18T23:51:57.888Z,76.60
2022-10-18T23:55:19.974Z,82.18
2022-10-18T23:58:43.252Z,83.38
